Time;durP1;ratioP1;P1;durP2;ratioP2;P2;SDS_P1;SDS_P2;PMS_P1;PMS_P2;Temp;Humidity;BMP_temperature;BMP_pressure;BME280_temperature;BME280_humidity;BME280_pressure;Samples;Min_cycle;Max_cycle;Signal;HPM_P1;HPM_P2
2021/01/05 00:00:30;;;;;;;37.50;18.40;;;;;;;27.30;16.35;97651.13;5085182;28;20480;-86
2021/01/05 00:02:57;;;;;;;37.72;18.90;;;;;;;27.32;16.47;97648.63;5087670;28;20059;-86
2021/01/05 00:05:24;;;;;;;40.00;18.80;;;;;;;27.29;16.36;97649.53;5089675;28;20024;-86
2021/01/05 00:07:51;;;;;;;34.92;15.82;;;;;;;27.17;16.53;97651.22;5081367;28;20500;-86
2021/01/05 00:10:18;;;;;;;37.63;18.73;;;;;;;27.26;16.34;97644.81;5084582;28;20089;-86
2021/01/05 00:12:44;;;;;;;37.35;18.63;;;;;;;27.42;16.37;97644.59;5087751;28;20042;-86
2021/01/05 00:15:13;;;;;;;39.97;19.35;;;;;;;27.50;16.28;97640.22;5084255;28;20024;-86
2021/01/05 00:17:39;;;;;;;37.45;17.27;;;;;;;27.51;16.25;97644.63;5082501;28;20158;-86
2021/01/05 00:20:09;;;;;;;37.03;17.00;;;;;;;27.46;16.43;97641.63;5091234;28;20040;-86
2021/01/05 00:22:35;;;;;;;28.73;14.02;;;;;;;27.53;16.03;97639.28;5074618;28;20040;-86
2021/01/05 00:25:04;;;;;;;29.23;14.98;;;;;;;27.82;15.95;97639.59;5088307;28;20032;-87
2021/01/05 00:27:30;;;;;;;27.42;13.25;;;;;;;28.04;15.73;97642.31;5099238;28;20492;-87
2021/01/05 00:29:56;;;;;;;23.23;12.40;;;;;;;28.20;15.74;97636.31;5089350;28;20030;-87
2021/01/05 00:32:24;;;;;;;33.15;14.75;;;;;;;28.03;15.57;97640.72;5072933;28;20167;-87
2021/01/05 00:34:51;;;;;;;25.50;12.43;;;;;;;27.99;15.59;97645.75;5092778;28;20020;-87
2021/01/05 00:37:18;;;;;;;30.20;15.15;;;;;;;28.08;15.62;97635.25;5077555;28;20040;-86
2021/01/05 00:39:45;;;;;;;23.70;11.80;;;;;;;28.24;15.55;97636.94;5081049;28;20044;-87
2021/01/05 00:42:11;;;;;;;33.72;17.40;;;;;;;28.14;15.63;97641.06;5087237;28;20032;-87
2021/01/05 00:44:38;;;;;;;29.40;14.90;;;;;;;27.87;15.90;97638.19;5088967;28;20032;-87
2021/01/05 00:47:05;;;;;;;29.23;15.93;;;;;;;27.68;15.99;97634.59;5083631;28;20063;-87
2021/01/05 00:49:31;;;;;;;29.15;15.48;;;;;;;27.43;16.12;97634.88;5091782;28;20090;-87
2021/01/05 00:51:58;;;;;;;30.92;16.10;;;;;;;27.37;16.31;97629.09;5086016;28;20035;-87
2021/01/05 00:54:25;;;;;;;38.75;18.02;;;;;;;27.19;16.67;97639.50;5090776;28;20032;-86
2021/01/05 00:57:03;;;;;;;41.33;20.45;;;;;;;26.75;16.98;97633.22;5086556;28;20484;-87
2021/01/05 00:59:29;;;;;;;34.67;17.92;;;;;;;26.54;17.18;97629.19;5087508;28;20074;-87
2021/01/05 01:01:56;;;;;;;32.50;15.90;;;;;;;26.47;17.26;97623.84;5090018;28;20121;-87
2021/01/05 01:04:23;;;;;;;38.30;18.83;;;;;;;26.72;16.98;97625.69;5088731;28;20035;-87
2021/01/05 01:06:49;;;;;;;53.92;24.58;;;;;;;26.60;17.27;97626.56;5069585;28;20039;-86
2021/01/05 01:09:15;;;;;;;31.00;15.85;;;;;;;26.83;16.84;97628.91;5095526;28;20016;-87
2021/01/05 01:12:14;;;;;;;44.63;20.95;;;;;;;26.95;16.88;97622.38;5091314;28;20400;-87
2021/01/05 01:14:42;;;;;;;40.78;20.02;;;;;;;27.06;16.66;97625.53;5085443;28;20507;-86
2021/01/05 01:17:08;;;;;;;47.67;22.42;;;;;;;26.93;16.71;97618.44;5081629;28;20025;-86
2021/01/05 01:19:34;;;;;;;29.95;16.63;;;;;;;26.40;17.31;97620.50;5056408;28;20079;-87
2021/01/05 01:22:01;;;;;;;28.35;14.43;;;;;;;26.38;17.28;97620.19;5070455;28;20025;-86
2021/01/05 01:24:27;;;;;;;29.20;15.77;;;;;;;26.66;17.18;97625.50;5091300;28;20036;-86
2021/01/05 01:26:54;;;;;;;33.00;16.02;;;;;;;26.93;16.93;97619.25;5090759;28;20020;-86
2021/01/05 01:29:22;;;;;;;31.13;15.07;;;;;;;26.89;16.97;97615.75;5090327;28;20024;-86
2021/01/05 01:31:49;;;;;;;34.08;17.10;;;;;;;26.85;16.88;97611.53;5090700;28;20101;-86
2021/01/05 01:34:17;;;;;;;30.08;16.08;;;;;;;26.69;16.85;97609.72;5080532;28;20028;-86
2021/01/05 01:36:53;;;;;;;30.08;16.23;;;;;;;26.55;17.28;97602.63;5081257;28;20024;-86
2021/01/05 01:39:19;;;;;;;38.15;18.00;;;;;;;26.81;17.14;97600.41;5083714;28;20083;-86
2021/01/05 01:41:45;;;;;;;26.98;14.77;;;;;;;27.13;16.68;97596.25;5082092;28;20044;-86
2021/01/05 01:44:21;;;;;;;31.73;15.00;;;;;;;27.29;16.32;97584.72;5089627;28;20388;-86
2021/01/05 01:46:48;;;;;;;26.52;14.10;;;;;;;27.18;16.80;97588.00;5083803;28;20051;-86
2021/01/05 01:49:15;;;;;;;36.00;18.80;;;;;;;26.86;16.84;97587.75;5081399;28;20031;-87
2021/01/05 01:51:42;;;;;;;24.48;13.43;;;;;;;26.76;17.00;97580.50;5088835;28;20076;-86
2021/01/05 01:54:17;;;;;;;29.45;15.45;;;;;;;26.52;17.40;97586.66;5086815;28;20016;-86
2021/01/05 01:57:06;;;;;;;32.25;15.43;;;;;;;26.26;17.75;97581.66;5082858;28;20549;-86
2021/01/05 02:00:03;;;;;;;33.03;18.02;;;;;;;25.67;18.13;97574.97;5055680;28;20053;-86
2021/01/05 02:02:53;;;;;;;22.17;11.30;;;;;;;26.06;17.64;97571.53;5093009;28;20035;-86
2021/01/05 02:05:32;;;;;;;26.33;13.18;;;;;;;26.82;16.92;97573.00;5086212;28;20400;-86
2021/01/05 02:08:17;;;;;;;28.25;14.77;;;;;;;26.80;16.98;97573.47;5087778;28;20035;-86
2021/01/05 02:10:53;;;;;;;24.45;12.65;;;;;;;26.90;16.84;97571.47;5090564;28;20035;-86
2021/01/05 02:13:43;;;;;;;27.13;14.65;;;;;;;26.24;17.61;97568.06;5090962;28;20031;-86
2021/01/05 02:16:21;;;;;;;22.48;12.57;;;;;;;26.31;17.62;97567.78;5092959;28;20036;-87
2021/01/05 02:18:56;;;;;;;25.58;13.35;;;;;;;26.62;17.17;97564.94;5082137;28;20028;-87
2021/01/05 02:21:37;;;;;;;28.88;13.95;;;;;;;26.87;16.97;97559.09;5081775;28;20042;-87
2021/01/05 02:24:26;;;;;;;23.30;13.13;;;;;;;27.14;16.68;97567.59;5086083;28;20040;-87
2021/01/05 02:27:03;;;;;;;29.35;13.90;;;;;;;26.82;16.99;97559.72;5094897;28;20150;-87
2021/01/05 02:29:39;;;;;;;23.38;12.75;;;;;;;26.54;17.54;97556.00;5086311;28;20038;-87
2021/01/05 02:32:26;;;;;;;19.52;11.07;;;;;;;26.55;17.33;97554.75;5093549;28;20169;-87
2021/01/05 02:35:16;;;;;;;19.52;11.63;;;;;;;26.65;17.33;97547.88;5065049;28;20043;-87
2021/01/05 02:37:57;;;;;;;18.55;10.63;;;;;;;26.43;17.63;97549.22;5085080;28;20095;-87
2021/01/05 02:40:42;;;;;;;;;;;;;;;26.39;17.72;97545.78;5073437;28;20040;-88
2021/01/05 02:43:08;;;;;;;17.30;9.77;;;;;;;26.74;17.26;97542.31;5067974;28;19916;-88
2021/01/05 02:45:49;;;;;;;14.43;7.97;;;;;;;26.90;17.18;97534.84;5078827;28;20416;-88
2021/01/05 02:48:21;;;;;;;13.30;8.35;;;;;;;26.62;17.37;97534.75;5090844;28;20751;-87
2021/01/05 02:50:59;;;;;;;18.10;10.10;;;;;;;26.78;17.03;97525.28;5078236;28;20043;-88
2021/01/05 02:53:50;;;;;;;18.05;8.95;;;;;;;26.66;17.44;97521.31;5081591;28;20127;-88
2021/01/05 02:56:54;;;;;;;17.02;9.55;;;;;;;26.18;17.87;97518.47;5052754;28;20518;-88
2021/01/05 02:59:22;;;;;;;19.40;9.68;;;;;;;26.53;17.49;97515.03;5092549;28;20604;-88
2021/01/05 03:02:02;;;;;;;14.95;8.68;;;;;;;26.63;17.42;97518.63;5075481;28;20036;-87
2021/01/05 03:04:28;;;;;;;16.67;9.43;;;;;;;26.37;17.83;97501.19;5089311;28;20024;-88
2021/01/05 03:07:02;;;;;;;13.82;7.50;;;;;;;26.23;18.01;97503.78;5094586;28;20028;-88
2021/01/05 03:09:40;;;;;;;11.88;6.93;;;;;;;26.33;17.82;97497.72;5093857;28;20506;-88
2021/01/05 03:12:30;;;;;;;14.55;7.32;;;;;;;26.21;18.11;97497.84;5086114;28;20570;-88
2021/01/05 03:15:38;;;;;;;11.40;6.40;;;;;;;25.87;18.30;97490.28;5085406;28;20102;-88
2021/01/05 03:18:34;;;;;;;12.00;6.78;;;;;;;25.42;18.82;97494.34;5019856;28;20217;-88
2021/01/05 03:21:05;;;;;;;8.52;5.43;;;;;;;24.76;19.76;97491.91;5088155;28;20464;-88
2021/01/05 03:23:33;;;;;;;10.75;5.53;;;;;;;24.79;19.81;97490.19;5091680;28;20024;-88
2021/01/05 03:26:05;;;;;;;9.27;5.57;;;;;;;25.27;19.14;97493.31;5075626;28;20028;-88
2021/01/05 03:28:32;;;;;;;8.95;5.35;;;;;;;25.82;18.53;97482.44;5089466;28;20039;-88
2021/01/05 03:31:23;;;;;;;11.50;6.15;;;;;;;26.17;18.13;97488.75;5078685;28;20047;-88
2021/01/05 03:33:58;;;;;;;12.55;6.72;;;;;;;25.96;18.43;97484.72;5087087;28;20383;-87
2021/01/05 03:36:24;;;;;;;11.98;6.70;;;;;;;24.99;19.55;97474.66;5088714;28;20408;-88
2021/01/05 03:38:50;;;;;;;9.77;6.03;;;;;;;25.39;19.21;97475.59;5081097;28;20054;-88
2021/01/05 03:41:17;;;;;;;8.27;4.97;;;;;;;25.58;18.73;97475.75;5089020;28;20028;-87
2021/01/05 03:43:43;;;;;;;8.80;5.88;;;;;;;25.67;18.67;97468.13;5090960;28;20085;-88
2021/01/05 03:46:11;;;;;;;11.52;5.40;;;;;;;25.83;18.56;97470.75;5090327;28;20109;-88
2021/01/05 03:48:38;;;;;;;10.13;5.97;;;;;;;25.50;18.99;97463.19;5071839;28;20491;-88
2021/01/05 03:51:04;;;;;;;8.52;4.72;;;;;;;25.52;18.68;97466.31;5087946;28;20083;-87
2021/01/05 03:53:30;;;;;;;7.63;4.30;;;;;;;25.45;18.88;97458.16;5074005;28;20051;-88
2021/01/05 03:55:56;;;;;;;8.43;5.00;;;;;;;25.81;18.52;97453.53;5085534;28;20051;-88
2021/01/05 03:58:23;;;;;;;8.85;4.78;;;;;;;25.27;19.07;97456.78;5089359;28;20056;-87
2021/01/05 04:00:49;;;;;;;8.55;4.90;;;;;;;25.78;18.60;97456.50;5086494;28;20157;-87
2021/01/05 04:03:15;;;;;;;10.82;5.93;;;;;;;25.70;18.82;97449.56;5093674;28;20039;-87
2021/01/05 04:05:41;;;;;;;8.07;4.95;;;;;;;25.10;19.13;97455.38;5087849;28;20092;-87
2021/01/05 04:08:07;;;;;;;7.90;4.22;;;;;;;25.76;18.65;97444.94;5093234;28;20491;-87
2021/01/05 04:10:33;;;;;;;10.75;4.75;;;;;;;26.17;18.08;97452.16;5083823;28;20035;-87
2021/01/05 04:13:00;;;;;;;8.13;5.13;;;;;;;26.45;17.62;97446.16;5087296;28;20063;-88
2021/01/05 04:15:28;;;;;;;8.48;5.40;;;;;;;26.51;17.86;97449.91;5083648;28;20029;-87
2021/01/05 04:17:56;;;;;;;11.68;7.20;;;;;;;26.62;17.73;97447.47;5088763;28;20056;-88
2021/01/05 04:20:24;;;;;;;12.73;6.38;;;;;;;26.65;17.43;97438.06;5089229;28;20123;-87
2021/01/05 04:22:50;;;;;;;12.20;7.00;;;;;;;26.47;17.79;97438.03;5092146;28;20028;-87
2021/01/05 04:25:18;;;;;;;11.75;5.93;;;;;;;26.38;17.63;97442.84;5083324;28;20072;-87
2021/01/05 04:27:44;;;;;;;16.55;7.90;;;;;;;25.97;18.29;97444.09;5089357;28;20119;-87
2021/01/05 04:30:34;;;;;;;10.25;5.50;;;;;;;26.15;17.91;97441.38;5088526;28;20055;-87
2021/01/05 04:33:04;;;;;;;12.90;7.80;;;;;;;26.38;17.52;97437.22;5085948;28;20032;-87
2021/01/05 04:35:31;;;;;;;13.60;7.37;;;;;;;26.09;17.87;97443.22;5089430;28;20044;-87
2021/01/05 04:37:57;;;;;;;13.73;7.95;;;;;;;25.97;17.99;97435.66;5084423;28;20282;-88
2021/01/05 04:40:42;;;;;;;10.82;6.15;;;;;;;26.39;17.35;97430.34;5086305;28;20131;-87
2021/01/05 04:43:23;;;;;;;10.93;5.97;;;;;;;26.55;17.47;97435.72;5077025;28;20029;-87
2021/01/05 04:45:54;;;;;;;14.90;6.72;;;;;;;26.66;17.21;97434.00;5086688;28;20077;-87
2021/01/05 04:48:43;;;;;;;9.02;6.07;;;;;;;26.73;17.09;97430.09;5079189;28;20024;-87
2021/01/05 04:51:26;;;;;;;14.93;7.85;;;;;;;26.76;17.07;97431.22;5088446;28;20051;-87
2021/01/05 04:54:13;;;;;;;9.95;5.97;;;;;;;26.54;17.41;97434.13;5091263;28;20514;-87
2021/01/05 04:57:11;;;;;;;10.20;6.90;;;;;;;25.83;18.04;97439.03;5083935;28;20055;-88
2021/01/05 04:59:48;;;;;;;8.13;5.25;;;;;;;25.93;17.81;97435.78;5092812;28;20123;-88
2021/01/05 05:02:29;;;;;;;11.98;6.93;;;;;;;25.84;18.09;97426.50;5087257;28;20028;-88
2021/01/05 05:05:16;;;;;;;8.02;5.28;;;;;;;26.09;17.59;97429.16;5081954;28;20033;-88
2021/01/05 05:07:58;;;;;;;15.32;7.32;;;;;;;25.56;18.13;97430.44;5093749;28;20103;-88
2021/01/05 05:10:49;;;;;;;8.93;5.13;;;;;;;25.90;17.93;97435.94;5091770;28;20537;-88
2021/01/05 05:13:50;;;;;;;10.13;4.90;;;;;;;26.43;17.51;97422.53;5080511;28;20037;-88
2021/01/05 05:16:42;;;;;;;12.40;7.57;;;;;;;26.74;16.91;97431.69;5082349;28;20492;-89
2021/01/05 05:19:11;;;;;;;12.63;7.70;;;;;;;26.77;16.84;97413.09;5089121;28;20119;-88
2021/01/05 05:21:51;;;;;;;9.43;5.45;;;;;;;26.39;17.18;97417.06;5083952;28;20032;-89
2021/01/05 05:24:39;;;;;;;16.00;6.97;;;;;;;26.55;17.18;97416.78;5092347;28;20032;-89
2021/01/05 05:27:17;;;;;;;10.43;5.45;;;;;;;26.54;17.07;97414.41;5093925;28;20032;-89
2021/01/05 05:29:52;;;;;;;12.43;6.35;;;;;;;26.57;17.08;97413.50;5091946;28;20040;-89
2021/01/05 05:32:35;;;;;;;10.35;5.47;;;;;;;26.74;17.04;97409.94;5074130;28;20032;-89
2021/01/05 05:35:03;;;;;;;8.70;4.72;;;;;;;26.53;17.21;97415.69;5089316;28;20039;-88
2021/01/05 05:37:51;;;;;;;11.30;6.15;;;;;;;26.46;17.11;97419.59;5089415;28;20428;-88
2021/01/05 05:40:50;;;;;;;7.32;4.70;;;;;;;26.09;17.50;97420.72;5085035;28;20127;-89
2021/01/05 05:43:58;;;;;;;8.82;5.05;;;;;;;26.24;17.25;97415.28;5090966;28;20068;-89
2021/01/05 05:46:41;;;;;;;13.50;6.50;;;;;;;26.29;17.22;97420.31;5089430;28;20456;-89
2021/01/05 05:49:31;;;;;;;14.23;5.93;;;;;;;26.57;16.90;97414.28;5087427;28;20476;-90
2021/01/05 05:52:01;;;;;;;15.00;7.43;;;;;;;26.73;16.65;97404.75;5090349;28;20032;-89
2021/01/05 05:54:28;;;;;;;8.15;4.32;;;;;;;26.63;16.94;97403.94;5082625;28;20032;-87
2021/01/05 05:57:32;;;;;;;15.65;5.78;;;;;;;26.39;17.09;97408.63;5088435;28;20553;-87
2021/01/05 06:00:05;;;;;;;12.65;5.70;;;;;;;26.50;17.01;97413.78;5082231;28;20032;-85
2021/01/05 06:02:34;;;;;;;10.73;4.93;;;;;;;26.28;16.98;97408.25;5089725;28;20047;-85
2021/01/05 06:05:00;;;;;;;11.43;5.40;;;;;;;26.36;16.99;97403.91;5088674;28;20031;-87
2021/01/05 06:07:26;;;;;;;9.68;5.65;;;;;;;26.35;17.19;97402.34;5090281;28;20079;-88
2021/01/05 06:09:52;;;;;;;11.25;6.70;;;;;;;25.41;17.83;97408.44;5082811;28;20514;-87
2021/01/05 06:12:18;;;;;;;9.77;5.95;;;;;;;24.88;18.64;97409.63;5096877;28;20036;-87
2021/01/05 06:14:44;;;;;;;12.77;6.85;;;;;;;25.23;18.00;97407.53;5092663;28;20039;-89
2021/01/05 06:17:20;;;;;;;;;;;;;;;;;;;;;
2021/01/05 06:19:46;;;;;;;13.60;6.88;;;;;;;25.90;17.49;97405.78;5078256;28;20383;-87
2021/01/05 06:22:12;;;;;;;20.10;10.65;;;;;;;26.12;17.16;97394.47;5091753;28;20028;-86
2021/01/05 06:24:38;;;;;;;11.93;7.90;;;;;;;25.77;17.61;97404.28;5085774;28;20036;-86
2021/01/05 06:27:05;;;;;;;39.08;15.52;;;;;;;26.07;17.31;97387.38;5073109;28;20020;-86
2021/01/05 06:29:31;;;;;;;22.73;10.50;;;;;;;25.98;17.15;97389.38;5094927;28;20040;-86
2021/01/05 06:31:57;;;;;;;66.22;24.27;;;;;;;26.14;17.29;97394.03;5087260;28;20020;-86
2021/01/05 06:34:23;;;;;;;60.85;21.38;;;;;;;26.01;17.38;97391.28;5092145;28;20028;-86
2021/01/05 06:36:49;;;;;;;26.10;11.70;;;;;;;25.93;17.32;97401.25;5092312;28;20392;-86
2021/01/05 06:39:15;;;;;;;45.95;18.42;;;;;;;25.95;17.47;97393.91;5088251;28;20052;-86
2021/01/05 06:41:41;;;;;;;22.98;10.93;;;;;;;25.72;17.63;97391.63;5092581;28;20476;-86
2021/01/05 06:44:07;;;;;;;21.10;11.10;;;;;;;25.84;17.30;97385.13;5071847;28;20040;-86
2021/01/05 06:46:33;;;;;;;17.95;10.27;;;;;;;25.29;17.87;97386.84;5087454;28;20365;-86
2021/01/05 06:48:59;;;;;;;32.47;15.07;;;;;;;25.54;17.79;97385.13;5080599;28;20488;-86
2021/01/05 06:51:25;;;;;;;23.02;13.02;;;;;;;25.77;17.50;97381.81;5091199;28;20032;-86
2021/01/05 06:53:51;;;;;;;14.18;8.95;;;;;;;25.83;17.28;97383.56;5089351;28;20542;-86
2021/01/05 06:56:17;;;;;;;18.33;10.45;;;;;;;25.96;17.21;97377.81;5087874;28;20028;-86
2021/01/05 06:58:43;;;;;;;15.20;8.90;;;;;;;26.11;16.96;97378.06;5089131;28;20097;-86
2021/01/05 07:01:09;;;;;;;15.40;8.85;;;;;;;25.88;17.32;97382.94;5096150;28;20040;-86
2021/01/05 07:03:35;;;;;;;18.90;11.63;;;;;;;26.07;16.99;97380.97;5096091;28;20035;-86
2021/01/05 07:06:02;;;;;;;12.07;8.15;;;;;;;26.07;17.23;97381.75;5090684;28;20028;-86
2021/01/05 07:08:28;;;;;;;11.68;7.60;;;;;;;26.08;17.10;97383.34;5088082;28;20101;-87
2021/01/05 07:10:54;;;;;;;17.08;9.55;;;;;;;26.14;17.13;97374.31;5086756;28;20048;-87
2021/01/05 07:13:20;;;;;;;12.77;7.68;;;;;;;26.10;17.08;97385.72;5087336;28;20035;-87
2021/01/05 07:15:46;;;;;;;11.18;7.32;;;;;;;25.74;17.51;97379.94;5094620;28;20047;-87
2021/01/05 07:18:12;;;;;;;10.82;6.68;;;;;;;25.89;17.40;97376.09;5087393;28;20037;-87
2021/01/05 07:20:38;;;;;;;9.70;6.07;;;;;;;25.68;17.58;97378.94;5085826;28;20460;-87
2021/01/05 07:23:04;;;;;;;12.43;6.47;;;;;;;25.86;17.51;97373.41;5087374;28;20036;-87
2021/01/05 07:25:30;;;;;;;11.52;7.45;;;;;;;25.66;17.55;97378.63;5092027;28;20384;-86
2021/01/05 07:27:56;;;;;;;14.80;8.05;;;;;;;25.38;17.88;97375.66;5088712;28;20055;-86
2021/01/05 07:30:22;;;;;;;12.93;7.90;;;;;;;25.65;17.68;97368.66;5087620;28;20448;-87
2021/01/05 07:32:48;;;;;;;13.77;8.27;;;;;;;25.40;17.74;97375.97;5091642;28;20043;-87
2021/01/05 07:35:14;;;;;;;12.75;7.20;;;;;;;25.85;17.36;97367.00;5085669;28;20028;-87
2021/01/05 07:37:43;;;;;;;8.43;5.78;;;;;;;26.03;17.19;97366.28;5089790;28;20099;-87
2021/01/05 07:40:13;;;;;;;16.08;7.93;;;;;;;26.19;17.19;97366.03;5087780;28;20131;-87
2021/01/05 07:42:39;;;;;;;15.38;7.78;;;;;;;26.24;17.09;97359.00;5088017;28;20064;-87
2021/01/05 07:45:15;;;;;;;14.05;7.35;;;;;;;26.51;16.69;97361.88;5067227;28;20479;-87
2021/01/05 07:47:41;;;;;;;12.90;7.45;;;;;;;26.19;17.11;97360.41;5067561;28;20102;-87
2021/01/05 07:50:15;;;;;;;16.75;8.65;;;;;;;25.83;17.43;97363.88;5092000;28;20028;-87
2021/01/05 07:52:42;;;;;;;11.90;7.13;;;;;;;26.09;16.98;97368.00;5069423;28;20036;-87
2021/01/05 07:55:25;;;;;;;15.30;7.40;;;;;;;25.67;17.63;97366.16;5083518;28;20029;-87
2021/01/05 07:57:53;;;;;;;15.88;8.95;;;;;;;25.43;17.90;97365.84;5085903;28;20400;-87
2021/01/05 08:00:22;;;;;;;11.23;7.88;;;;;;;25.64;17.63;97369.88;5086569;28;20043;-87
2021/01/05 08:02:48;;;;;;;13.65;8.77;;;;;;;24.49;18.70;97366.06;5086320;28;20097;-87
2021/01/05 08:05:17;;;;;;;9.27;5.60;;;;;;;25.41;17.96;97365.53;5084917;28;20055;-86
2021/01/05 08:07:44;;;;;;;7.78;4.38;;;;;;;26.03;17.10;97363.47;5063179;28;20038;-87
2021/01/05 08:10:25;;;;;;;6.65;4.60;;;;;;;26.34;16.81;97358.56;5078920;28;20028;-87
2021/01/05 08:12:52;;;;;;;9.20;5.60;;;;;;;26.61;16.47;97354.97;5089135;28;20500;-88
2021/01/05 08:15:21;;;;;;;7.00;4.07;;;;;;;26.76;16.31;97360.81;5096651;28;20036;-87
2021/01/05 08:17:49;;;;;;;7.82;5.13;;;;;;;26.94;16.13;97364.41;5085525;28;20047;-86
2021/01/05 08:20:26;;;;;;;9.63;6.00;;;;;;;26.91;16.11;97367.41;5087279;28;20037;-86
2021/01/05 08:22:52;;;;;;;9.85;7.07;;;;;;;26.96;16.25;97361.91;5074856;28;20111;-86
2021/01/05 08:25:19;;;;;;;9.95;5.38;;;;;;;27.07;15.83;97365.00;5085394;28;20062;-86
2021/01/05 08:27:48;;;;;;;14.63;7.70;;;;;;;27.23;15.68;97356.25;5079813;28;20036;-86
2021/01/05 08:30:18;;;;;;;12.68;6.78;;;;;;;27.29;15.50;97350.72;5080604;28;20032;-86
2021/01/05 08:32:45;;;;;;;14.38;8.73;;;;;;;26.95;16.19;97354.72;5081232;28;20066;-87
2021/01/05 08:35:12;;;;;;;17.88;8.95;;;;;;;27.07;15.76;97352.97;5089480;28;20505;-87
2021/01/05 08:37:39;;;;;;;15.63;7.72;;;;;;;27.06;15.91;97348.59;5087817;28;20036;-86
2021/01/05 08:40:08;;;;;;;13.18;7.03;;;;;;;27.10;15.84;97346.38;5093284;28;20098;-86
2021/01/05 08:42:34;;;;;;;16.42;7.97;;;;;;;27.07;15.76;97350.91;5074747;28;20039;-87
2021/01/05 08:45:00;;;;;;;10.38;5.35;;;;;;;27.10;15.72;97346.38;5091671;28;20101;-86
2021/01/05 08:47:26;;;;;;;10.65;5.60;;;;;;;26.89;15.94;97345.31;5088054;28;20067;-88
2021/01/05 08:49:52;;;;;;;10.10;5.45;;;;;;;26.62;16.21;97337.63;5084892;28;20041;-88
2021/01/05 08:52:23;;;;;;;10.35;5.68;;;;;;;26.24;16.67;97351.34;5060030;28;20391;-88
2021/01/05 08:54:49;;;;;;;14.27;6.75;;;;;;;26.42;16.51;97344.97;5086434;28;20032;-88
2021/01/05 08:57:15;;;;;;;10.18;6.03;;;;;;;26.29;16.44;97350.75;5068235;28;20040;-86
2021/01/05 08:59:45;;;;;;;11.15;5.82;;;;;;;26.50;16.34;97341.38;5092568;28;20028;-86
2021/01/05 09:02:11;;;;;;;13.13;7.57;;;;;;;26.46;16.55;97346.41;5079178;28;20047;-85
2021/01/05 09:04:39;;;;;;;11.50;6.47;;;;;;;26.68;16.21;97344.19;5089586;28;20032;-86
2021/01/05 09:07:05;;;;;;;11.93;6.93;;;;;;;26.58;16.20;97347.50;5069162;28;20039;-86
2021/01/05 09:09:32;;;;;;;13.50;6.60;;;;;;;26.48;16.36;97337.47;5087869;28;20458;-86
2021/01/05 09:11:59;;;;;;;9.63;5.60;;;;;;;26.51;16.45;97345.75;5083890;28;20467;-86
2021/01/05 09:14:25;;;;;;;10.13;5.68;;;;;;;26.19;16.84;97340.72;5084947;28;20031;-86
2021/01/05 09:17:01;;;;;;;7.50;5.78;;;;;;;26.04;16.70;97340.47;5089017;28;20426;-86
2021/01/05 09:19:28;;;;;;;9.13;4.95;;;;;;;26.55;16.46;97334.34;5089461;28;20062;-86
2021/01/05 09:21:56;;;;;;;9.55;5.88;;;;;;;26.68;16.22;97335.75;5071429;28;20028;-86
2021/01/05 09:24:22;;;;;;;7.43;5.22;;;;;;;26.55;16.37;97334.34;5085824;28;20033;-86
2021/01/05 09:26:54;;;;;;;8.30;4.65;;;;;;;26.38;16.51;97331.03;5089926;28;20036;-85
2021/01/05 09:29:21;;;;;;;10.73;6.30;;;;;;;26.28;16.53;97331.53;5085635;28;20040;-86
2021/01/05 09:31:49;;;;;;;14.77;6.95;;;;;;;26.51;16.40;97336.53;5090189;28;20144;-86
2021/01/05 09:34:18;;;;;;;11.57;7.22;;;;;;;26.19;16.79;97325.84;5062059;28;20089;-86
2021/01/05 09:36:44;;;;;;;8.23;5.20;;;;;;;26.52;16.56;97330.44;5090967;28;20047;-85
2021/01/05 09:39:16;;;;;;;9.13;5.47;;;;;;;26.85;16.32;97327.78;5087693;28;20028;-86
2021/01/05 09:41:48;;;;;;;11.07;7.05;;;;;;;26.34;16.85;97329.63;5090286;28;20514;-86
2021/01/05 09:44:15;;;;;;;13.23;7.60;;;;;;;26.70;16.38;97321.97;5068211;28;20039;-86
2021/01/05 09:46:42;;;;;;;11.70;6.30;;;;;;;26.68;16.56;97318.06;5071738;28;20040;-85
2021/01/05 09:49:13;;;;;;;10.30;5.90;;;;;;;26.41;16.96;97316.03;5093006;28;20078;-86
2021/01/05 09:51:39;;;;;;;;;;;;;;;25.90;17.38;97312.97;5088490;28;20032;-85
2021/01/05 09:54:06;;;;;;;13.52;7.55;;;;;;;25.80;17.38;97316.19;5082530;28;20294;-85
2021/01/05 09:56:32;;;;;;;11.77;7.22;;;;;;;25.95;17.46;97306.69;5093159;28;20040;-86
2021/01/05 09:59:02;;;;;;;15.25;8.75;;;;;;;25.96;17.75;97307.50;5089332;28;20025;-86
2021/01/05 10:01:33;;;;;;;12.48;6.45;;;;;;;26.61;17.11;97304.31;5086665;28;20036;-85
2021/01/05 10:03:59;;;;;;;10.43;6.82;;;;;;;26.37;17.44;97306.94;5086239;28;20040;-85
2021/01/05 10:06:34;;;;;;;10.30;5.80;;;;;;;26.74;17.17;97305.72;5089394;28;20028;-86
2021/01/05 10:09:07;;;;;;;9.63;5.75;;;;;;;26.53;17.50;97292.59;5087849;28;20044;-85
2021/01/05 10:11:35;;;;;;;10.65;6.43;;;;;;;26.84;17.17;97297.28;5084200;28;20055;-86
2021/01/05 10:14:01;;;;;;;10.60;6.30;;;;;;;27.22;16.83;97297.50;5079309;28;20089;-85
2021/01/05 10:16:27;;;;;;;12.50;7.35;;;;;;;27.45;16.79;97301.69;5078580;28;20035;-88
2021/01/05 10:18:53;;;;;;;9.93;6.57;;;;;;;27.44;16.90;97298.09;5082285;28;20048;-84
2021/01/05 10:21:23;;;;;;;12.35;7.00;;;;;;;27.06;16.93;97286.59;5079823;28;20496;-83
2021/01/05 10:23:50;;;;;;;13.98;8.20;;;;;;;27.14;16.72;97294.22;5086111;28;20017;-84
2021/01/05 10:26:16;;;;;;;14.60;8.85;;;;;;;26.38;17.32;97288.03;5084561;28;20484;-85
2021/01/05 10:28:42;;;;;;;12.50;7.50;;;;;;;26.73;17.20;97292.88;5081035;28;20519;-85
2021/01/05 10:31:08;;;;;;;11.73;6.18;;;;;;;26.95;17.29;97295.53;5077283;28;20120;-84
2021/01/05 10:33:34;;;;;;;11.60;6.57;;;;;;;27.10;17.00;97290.81;5084977;28;20048;-83
2021/01/05 10:36:01;;;;;;;11.57;6.25;;;;;;;26.95;17.05;97291.94;5078023;28;20043;-85
2021/01/05 10:38:27;;;;;;;11.27;7.03;;;;;;;27.24;16.83;97287.31;5063957;28;20377;-86
2021/01/05 10:40:53;;;;;;;13.65;6.93;;;;;;;27.24;17.07;97287.31;5078332;28;20569;-86
2021/01/05 10:43:19;;;;;;;14.68;7.70;;;;;;;26.54;17.21;97282.88;5080152;28;20044;-86
2021/01/05 10:45:45;;;;;;;12.88;7.03;;;;;;;26.54;17.56;97284.91;5062715;28;20032;-85
2021/01/05 10:48:12;;;;;;;12.73;7.03;;;;;;;26.37;17.50;97292.13;5088466;28;20103;-84
2021/01/05 10:50:40;;;;;;;11.68;6.10;;;;;;;26.54;17.31;97290.53;5085709;28;20036;-85
2021/01/05 10:53:06;;;;;;;10.98;6.60;;;;;;;26.59;17.41;97292.72;5086369;28;20028;-85
2021/01/05 10:55:32;;;;;;;13.60;7.38;;;;;;;26.49;17.47;97289.13;5087092;28;20040;-86
2021/01/05 10:57:58;;;;;;;10.02;5.65;;;;;;;26.27;17.53;97279.28;5089590;28;20032;-87
2021/01/05 11:00:25;;;;;;;13.88;7.75;;;;;;;25.92;17.81;97284.38;5090566;28;20040;-87
2021/01/05 11:02:51;;;;;;;14.00;7.25;;;;;;;26.51;17.38;97280.22;5093444;28;20044;-85
2021/01/05 11:05:18;;;;;;;11.23;6.47;;;;;;;26.78;17.18;97276.63;5086975;28;20031;-84
2021/01/05 11:07:50;;;;;;;10.93;5.88;;;;;;;26.55;17.25;97275.22;5083015;28;20032;-85
2021/01/05 11:10:17;;;;;;;11.02;7.00;;;;;;;26.60;17.04;97283.84;5090404;28;20036;-85
2021/01/05 11:12:43;;;;;;;10.70;6.68;;;;;;;26.63;17.25;97276.44;5083722;28;20094;-84
2021/01/05 11:15:13;;;;;;;13.10;6.15;;;;;;;26.06;17.58;97275.31;5066191;28;20025;-85
2021/01/05 11:17:39;;;;;;;11.02;5.35;;;;;;;25.74;18.00;97273.06;5080445;28;20059;-85
2021/01/05 11:20:06;;;;;;;10.93;6.10;;;;;;;26.33;17.34;97275.38;5081673;28;20032;-86
2021/01/05 11:22:32;;;;;;;10.63;6.72;;;;;;;26.23;17.28;97268.19;5083047;28;20036;-86
2021/01/05 11:24:58;;;;;;;12.50;7.22;;;;;;;26.34;17.19;97273.34;5089072;28;20032;-85
2021/01/05 11:27:24;;;;;;;9.52;5.30;;;;;;;26.18;17.36;97268.03;5094971;28;20029;-85
2021/01/05 11:29:51;;;;;;;10.45;5.25;;;;;;;26.21;17.35;97269.91;5094791;28;20048;-86
2021/01/05 11:32:18;;;;;;;10.65;5.57;;;;;;;26.48;17.20;97275.53;5076806;28;20029;-85
2021/01/05 11:34:45;;;;;;;8.60;5.57;;;;;;;26.72;16.85;97273.66;5087814;28;20047;-84
2021/01/05 11:37:16;;;;;;;8.63;4.70;;;;;;;26.88;16.63;97270.53;5094583;28;20383;-85
2021/01/05 11:39:46;;;;;;;12.50;7.53;;;;;;;26.08;17.68;97282.06;5091615;28;20051;-84
2021/01/05 11:42:15;;;;;;;13.70;6.72;;;;;;;25.75;17.86;97274.63;5082698;28;20043;-84
2021/01/05 11:44:44;;;;;;;11.68;7.78;;;;;;;25.88;17.73;97272.50;5076617;28;20037;-85